sensor_id;sensor_type;location;lat;lon;timestamp;P1;durP1;ratioP1;P2;durP2;ratioP2
2698;SDS011;1359;51.798;12.174;2022-10-31T00:00:40;33.90;;;22.53;;
2698;SDS011;1359;51.798;12.174;2022-10-31T00:03:06;39.03;;;21.40;;
2698;SDS011;1359;51.798;12.174;2022-10-31T00:05:31;37.22;;;20.23;;
2698;SDS011;1359;51.798;12.174;2022-10-31T00:07:56;31.08;;;18.88;;
2698;SDS011;1359;51.798;12.174;2022-10-31T00:10:21;32.60;;;17.30;;
2698;SDS011;1359;51.798;12.174;2022-10-31T00:12:46;31.73;;;16.40;;
2698;SDS011;1359;51.798;12.174;2022-10-31T00:15:11;27.45;;;16.27;;
2698;SDS011;1359;51.798;12.174;2022-10-31T00:17:36;23.97;;;14.87;;
2698;SDS011;1359;51.798;12.174;2022-10-31T00:20:02;17.35;;;13.07;;
2698;SDS011;1359;51.798;12.174;2022-10-31T00:22:27;17.93;;;13.60;;
2698;SDS011;1359;51.798;12.174;2022-10-31T00:24:52;21.70;;;14.52;;
2698;SDS011;1359;51.798;12.174;2022-10-31T00:27:17;25.77;;;15.13;;
2698;SDS011;1359;51.798;12.174;2022-10-31T00:29:42;23.08;;;17.70;;
2698;SDS011;1359;51.798;12.174;2022-10-31T00:32:07;20.90;;;15.95;;
2698;SDS011;1359;51.798;12.174;2022-10-31T00:34:33;25.45;;;15.93;;
2698;SDS011;1359;51.798;12.174;2022-10-31T00:36:58;16.60;;;13.55;;
2698;SDS011;1359;51.798;12.174;2022-10-31T00:39:23;20.83;;;14.45;;
2698;SDS011;1359;51.798;12.174;2022-10-31T00:41:48;33.08;;;13.68;;
2698;SDS011;1359;51.798;12.174;2022-10-31T00:44:13;16.45;;;12.15;;
2698;SDS011;1359;51.798;12.174;2022-10-31T00:46:38;19.00;;;11.82;;
2698;SDS011;1359;51.798;12.174;2022-10-31T00:49:03;21.75;;;12.40;;
2698;SDS011;1359;51.798;12.174;2022-10-31T00:51:28;13.60;;;10.23;;
2698;SDS011;1359;51.798;12.174;2022-10-31T00:53:54;19.98;;;12.27;;
2698;SDS011;1359;51.798;12.174;2022-10-31T00:56:19;19.93;;;11.13;;
2698;SDS011;1359;51.798;12.174;2022-10-31T00:58:44;14.23;;;10.90;;
2698;SDS011;1359;51.798;12.174;2022-10-31T01:01:09;12.70;;;10.27;;
2698;SDS011;1359;51.798;12.174;2022-10-31T01:03:34;12.50;;;10.18;;
2698;SDS011;1359;51.798;12.174;2022-10-31T01:06:07;15.07;;;10.13;;
2698;SDS011;1359;51.798;12.174;2022-10-31T01:08:33;33.20;;;12.80;;
2698;SDS011;1359;51.798;12.174;2022-10-31T01:11:10;15.80;;;10.47;;
2698;SDS011;1359;51.798;12.174;2022-10-31T01:13:35;14.57;;;9.73;;
2698;SDS011;1359;51.798;12.174;2022-10-31T01:16:01;21.40;;;11.90;;
2698;SDS011;1359;51.798;12.174;2022-10-31T01:18:27;15.90;;;10.47;;
2698;SDS011;1359;51.798;12.174;2022-10-31T01:20:59;13.90;;;9.57;;
2698;SDS011;1359;51.798;12.174;2022-10-31T01:23:25;20.27;;;12.33;;
2698;SDS011;1359;51.798;12.174;2022-10-31T01:25:58;13.47;;;9.53;;
2698;SDS011;1359;51.798;12.174;2022-10-31T01:28:23;15.50;;;10.87;;
2698;SDS011;1359;51.798;12.174;2022-10-31T01:30:48;18.03;;;11.23;;
2698;SDS011;1359;51.798;12.174;2022-10-31T01:33:13;13.80;;;9.93;;
2698;SDS011;1359;51.798;12.174;2022-10-31T01:35:38;19.50;;;11.07;;
2698;SDS011;1359;51.798;12.174;2022-10-31T01:38:04;13.88;;;9.68;;
2698;SDS011;1359;51.798;12.174;2022-10-31T01:40:29;14.77;;;10.05;;
2698;SDS011;1359;51.798;12.174;2022-10-31T01:42:54;27.60;;;13.43;;
2698;SDS011;1359;51.798;12.174;2022-10-31T01:45:19;24.40;;;11.60;;
2698;SDS011;1359;51.798;12.174;2022-10-31T01:47:46;16.87;;;11.37;;
2698;SDS011;1359;51.798;12.174;2022-10-31T01:50:31;17.80;;;11.17;;
2698;SDS011;1359;51.798;12.174;2022-10-31T01:52:58;13.73;;;10.33;;
2698;SDS011;1359;51.798;12.174;2022-10-31T01:55:34;12.43;;;9.43;;
2698;SDS011;1359;51.798;12.174;2022-10-31T01:58:03;13.70;;;10.23;;
2698;SDS011;1359;51.798;12.174;2022-10-31T02:00:29;13.17;;;9.13;;
2698;SDS011;1359;51.798;12.174;2022-10-31T02:02:55;15.63;;;11.37;;
2698;SDS011;1359;51.798;12.174;2022-10-31T02:05:21;10.60;;;9.50;;
2698;SDS011;1359;51.798;12.174;2022-10-31T02:07:58;17.90;;;9.63;;
2698;SDS011;1359;51.798;12.174;2022-10-31T02:10:25;14.20;;;10.53;;
2698;SDS011;1359;51.798;12.174;2022-10-31T02:12:51;11.63;;;8.90;;
2698;SDS011;1359;51.798;12.174;2022-10-31T02:15:17;13.13;;;10.13;;
2698;SDS011;1359;51.798;12.174;2022-10-31T02:17:43;13.70;;;9.73;;
2698;SDS011;1359;51.798;12.174;2022-10-31T02:20:18;14.30;;;10.90;;
2698;SDS011;1359;51.798;12.174;2022-10-31T02:30:38;14.33;;;9.80;;
2698;SDS011;1359;51.798;12.174;2022-10-31T02:33:07;13.30;;;9.73;;
2698;SDS011;1359;51.798;12.174;2022-10-31T02:36:20;20.30;;;9.93;;
2698;SDS011;1359;51.798;12.174;2022-10-31T02:38:42;12.70;;;9.37;;
2698;SDS011;1359;51.798;12.174;2022-10-31T02:41:15;13.43;;;9.73;;
2698;SDS011;1359;51.798;12.174;2022-10-31T02:46:24;17.70;;;11.93;;
2698;SDS011;1359;51.798;12.174;2022-10-31T02:48:51;14.03;;;8.90;;
2698;SDS011;1359;51.798;12.174;2022-10-31T02:51:18;11.40;;;8.60;;
2698;SDS011;1359;51.798;12.174;2022-10-31T02:53:43;18.33;;;9.27;;
2698;SDS011;1359;51.798;12.174;2022-10-31T02:56:11;10.35;;;7.95;;
2698;SDS011;1359;51.798;12.174;2022-10-31T02:58:38;14.17;;;8.13;;
2698;SDS011;1359;51.798;12.174;2022-10-31T03:03:53;13.00;;;9.40;;
2698;SDS011;1359;51.798;12.174;2022-10-31T03:11:15;13.77;;;10.10;;
2698;SDS011;1359;51.798;12.174;2022-10-31T03:18:48;12.60;;;7.97;;
2698;SDS011;1359;51.798;12.174;2022-10-31T03:21:19;16.93;;;8.40;;
2698;SDS011;1359;51.798;12.174;2022-10-31T03:23:46;10.30;;;8.67;;
2698;SDS011;1359;51.798;12.174;2022-10-31T03:26:12;15.90;;;10.87;;
2698;SDS011;1359;51.798;12.174;2022-10-31T03:28:41;12.70;;;10.00;;
2698;SDS011;1359;51.798;12.174;2022-10-31T03:31:08;13.80;;;9.63;;
2698;SDS011;1359;51.798;12.174;2022-10-31T03:33:35;11.23;;;8.70;;
2698;SDS011;1359;51.798;12.174;2022-10-31T03:36:01;10.17;;;8.33;;
2698;SDS011;1359;51.798;12.174;2022-10-31T03:38:27;11.37;;;8.53;;
2698;SDS011;1359;51.798;12.174;2022-10-31T03:40:53;10.40;;;8.70;;
2698;SDS011;1359;51.798;12.174;2022-10-31T03:43:21;18.17;;;9.30;;
2698;SDS011;1359;51.798;12.174;2022-10-31T03:45:47;10.67;;;7.57;;
2698;SDS011;1359;51.798;12.174;2022-10-31T03:48:15;23.73;;;10.30;;
2698;SDS011;1359;51.798;12.174;2022-10-31T03:53:18;13.60;;;9.07;;
2698;SDS011;1359;51.798;12.174;2022-10-31T03:56:06;10.10;;;7.70;;
2698;SDS011;1359;51.798;12.174;2022-10-31T03:58:57;11.17;;;8.50;;
2698;SDS011;1359;51.798;12.174;2022-10-31T04:01:19;14.63;;;8.57;;
2698;SDS011;1359;51.798;12.174;2022-10-31T04:03:45;13.13;;;8.13;;
2698;SDS011;1359;51.798;12.174;2022-10-31T04:06:12;10.63;;;7.50;;
2698;SDS011;1359;51.798;12.174;2022-10-31T04:08:40;14.53;;;8.83;;
2698;SDS011;1359;51.798;12.174;2022-10-31T04:11:07;14.13;;;8.47;;
2698;SDS011;1359;51.798;12.174;2022-10-31T04:13:33;16.20;;;8.57;;
2698;SDS011;1359;51.798;12.174;2022-10-31T04:15:59;10.93;;;7.07;;
2698;SDS011;1359;51.798;12.174;2022-10-31T04:18:24;24.43;;;9.70;;
2698;SDS011;1359;51.798;12.174;2022-10-31T04:20:58;14.97;;;8.27;;
2698;SDS011;1359;51.798;12.174;2022-10-31T04:23:24;10.00;;;7.57;;
2698;SDS011;1359;51.798;12.174;2022-10-31T04:25:50;13.70;;;9.07;;
2698;SDS011;1359;51.798;12.174;2022-10-31T04:28:15;13.37;;;8.47;;
2698;SDS011;1359;51.798;12.174;2022-10-31T04:30:40;16.47;;;8.30;;
2698;SDS011;1359;51.798;12.174;2022-10-31T04:33:05;11.07;;;7.72;;
2698;SDS011;1359;51.798;12.174;2022-10-31T04:35:31;12.30;;;8.40;;
2698;SDS011;1359;51.798;12.174;2022-10-31T04:37:56;10.63;;;7.80;;
2698;SDS011;1359;51.798;12.174;2022-10-31T04:40:21;11.77;;;9.05;;
2698;SDS011;1359;51.798;12.174;2022-10-31T04:42:46;15.70;;;7.40;;
2698;SDS011;1359;51.798;12.174;2022-10-31T04:45:11;13.47;;;8.90;;
2698;SDS011;1359;51.798;12.174;2022-10-31T04:47:36;10.60;;;8.30;;
2698;SDS011;1359;51.798;12.174;2022-10-31T04:50:02;14.73;;;7.97;;
2698;SDS011;1359;51.798;12.174;2022-10-31T04:52:27;16.03;;;10.60;;
2698;SDS011;1359;51.798;12.174;2022-10-31T04:54:52;19.27;;;9.03;;
2698;SDS011;1359;51.798;12.174;2022-10-31T04:57:17;22.00;;;9.70;;
2698;SDS011;1359;51.798;12.174;2022-10-31T04:59:42;12.27;;;9.35;;
2698;SDS011;1359;51.798;12.174;2022-10-31T05:02:08;14.85;;;11.75;;
2698;SDS011;1359;51.798;12.174;2022-10-31T05:04:33;9.87;;;8.13;;
2698;SDS011;1359;51.798;12.174;2022-10-31T05:06:58;14.07;;;9.20;;
2698;SDS011;1359;51.798;12.174;2022-10-31T05:09:23;14.90;;;9.35;;
2698;SDS011;1359;51.798;12.174;2022-10-31T05:11:48;20.48;;;18.45;;
2698;SDS011;1359;51.798;12.174;2022-10-31T05:14:13;10.67;;;9.33;;
2698;SDS011;1359;51.798;12.174;2022-10-31T05:16:39;14.73;;;9.30;;
2698;SDS011;1359;51.798;12.174;2022-10-31T05:19:04;17.27;;;8.70;;
2698;SDS011;1359;51.798;12.174;2022-10-31T05:21:29;12.80;;;9.40;;
2698;SDS011;1359;51.798;12.174;2022-10-31T05:23:54;14.32;;;8.75;;
2698;SDS011;1359;51.798;12.174;2022-10-31T05:26:19;12.60;;;8.50;;
2698;SDS011;1359;51.798;12.174;2022-10-31T05:28:44;18.83;;;10.02;;
2698;SDS011;1359;51.798;12.174;2022-10-31T05:31:09;15.35;;;8.52;;
2698;SDS011;1359;51.798;12.174;2022-10-31T05:33:35;10.60;;;7.80;;
2698;SDS011;1359;51.798;12.174;2022-10-31T05:36:00;13.02;;;8.55;;
2698;SDS011;1359;51.798;12.174;2022-10-31T05:38:25;14.57;;;7.87;;
2698;SDS011;1359;51.798;12.174;2022-10-31T05:40:50;10.40;;;7.97;;
2698;SDS011;1359;51.798;12.174;2022-10-31T05:43:18;11.60;;;8.50;;
2698;SDS011;1359;51.798;12.174;2022-10-31T05:45:43;16.48;;;8.80;;
2698;SDS011;1359;51.798;12.174;2022-10-31T05:48:09;13.15;;;8.23;;
2698;SDS011;1359;51.798;12.174;2022-10-31T05:50:34;10.40;;;8.80;;
2698;SDS011;1359;51.798;12.174;2022-10-31T05:53:00;10.70;;;8.65;;
2698;SDS011;1359;51.798;12.174;2022-10-31T05:55:26;12.30;;;8.87;;
2698;SDS011;1359;51.798;12.174;2022-10-31T05:57:52;12.87;;;7.87;;
2698;SDS011;1359;51.798;12.174;2022-10-31T06:00:17;16.23;;;10.07;;
2698;SDS011;1359;51.798;12.174;2022-10-31T06:02:42;15.60;;;8.90;;
2698;SDS011;1359;51.798;12.174;2022-10-31T06:05:08;11.33;;;10.13;;
2698;SDS011;1359;51.798;12.174;2022-10-31T06:07:33;13.55;;;9.60;;
2698;SDS011;1359;51.798;12.174;2022-10-31T06:09:59;12.00;;;9.67;;
2698;SDS011;1359;51.798;12.174;2022-10-31T06:12:24;9.13;;;8.20;;
2698;SDS011;1359;51.798;12.174;2022-10-31T06:14:49;14.75;;;9.05;;
2698;SDS011;1359;51.798;12.174;2022-10-31T06:17:14;16.42;;;7.97;;
2698;SDS011;1359;51.798;12.174;2022-10-31T06:19:39;12.57;;;9.67;;
2698;SDS011;1359;51.798;12.174;2022-10-31T06:22:04;12.90;;;7.82;;
2698;SDS011;1359;51.798;12.174;2022-10-31T06:24:30;13.67;;;9.07;;
2698;SDS011;1359;51.798;12.174;2022-10-31T06:26:55;14.53;;;9.13;;
2698;SDS011;1359;51.798;12.174;2022-10-31T06:29:20;13.50;;;8.32;;
2698;SDS011;1359;51.798;12.174;2022-10-31T06:31:45;11.03;;;7.93;;
2698;SDS011;1359;51.798;12.174;2022-10-31T06:34:10;21.97;;;8.87;;
2698;SDS011;1359;51.798;12.174;2022-10-31T06:36:35;13.40;;;8.27;;
2698;SDS011;1359;51.798;12.174;2022-10-31T06:41:31;13.80;;;8.70;;
2698;SDS011;1359;51.798;12.174;2022-10-31T06:43:56;14.37;;;8.57;;
2698;SDS011;1359;51.798;12.174;2022-10-31T06:46:21;14.05;;;8.75;;
2698;SDS011;1359;51.798;12.174;2022-10-31T06:48:46;11.63;;;8.68;;
2698;SDS011;1359;51.798;12.174;2022-10-31T06:51:12;17.53;;;9.70;;
2698;SDS011;1359;51.798;12.174;2022-10-31T06:53:37;15.18;;;9.57;;
2698;SDS011;1359;51.798;12.174;2022-10-31T06:56:02;12.65;;;8.40;;
2698;SDS011;1359;51.798;12.174;2022-10-31T06:58:27;14.47;;;9.60;;
2698;SDS011;1359;51.798;12.174;2022-10-31T07:00:52;19.23;;;9.90;;
2698;SDS011;1359;51.798;12.174;2022-10-31T07:03:17;9.95;;;7.72;;
2698;SDS011;1359;51.798;12.174;2022-10-31T07:05:43;20.03;;;9.23;;
2698;SDS011;1359;51.798;12.174;2022-10-31T07:08:12;12.20;;;7.90;;
2698;SDS011;1359;51.798;12.174;2022-10-31T07:10:38;13.60;;;9.50;;
2698;SDS011;1359;51.798;12.174;2022-10-31T07:13:04;17.83;;;9.40;;
2698;SDS011;1359;51.798;12.174;2022-10-31T07:15:32;16.20;;;9.33;;
2698;SDS011;1359;51.798;12.174;2022-10-31T07:18:01;12.50;;;8.93;;
2698;SDS011;1359;51.798;12.174;2022-10-31T07:20:26;15.70;;;10.03;;
2698;SDS011;1359;51.798;12.174;2022-10-31T07:22:51;12.80;;;9.73;;
2698;SDS011;1359;51.798;12.174;2022-10-31T07:25:17;12.38;;;9.00;;
2698;SDS011;1359;51.798;12.174;2022-10-31T07:27:42;13.03;;;9.20;;
2698;SDS011;1359;51.798;12.174;2022-10-31T07:30:08;12.57;;;8.33;;
2698;SDS011;1359;51.798;12.174;2022-10-31T07:32:44;20.70;;;10.50;;
2698;SDS011;1359;51.798;12.174;2022-10-31T07:35:10;17.07;;;9.20;;
2698;SDS011;1359;51.798;12.174;2022-10-31T07:37:36;16.90;;;11.57;;
2698;SDS011;1359;51.798;12.174;2022-10-31T07:40:05;23.43;;;10.93;;
2698;SDS011;1359;51.798;12.174;2022-10-31T07:42:37;25.97;;;10.83;;
2698;SDS011;1359;51.798;12.174;2022-10-31T07:45:02;19.20;;;12.13;;
2698;SDS011;1359;51.798;12.174;2022-10-31T07:47:28;22.30;;;13.00;;
2698;SDS011;1359;51.798;12.174;2022-10-31T07:49:53;21.10;;;12.48;;
2698;SDS011;1359;51.798;12.174;2022-10-31T07:52:18;17.15;;;13.10;;
2698;SDS011;1359;51.798;12.174;2022-10-31T07:54:43;29.95;;;12.50;;
2698;SDS011;1359;51.798;12.174;2022-10-31T07:57:08;22.98;;;12.65;;
2698;SDS011;1359;51.798;12.174;2022-10-31T07:59:33;24.27;;;14.60;;
2698;SDS011;1359;51.798;12.174;2022-10-31T08:01:59;25.17;;;16.92;;
2698;SDS011;1359;51.798;12.174;2022-10-31T08:04:24;32.08;;;14.07;;
2698;SDS011;1359;51.798;12.174;2022-10-31T08:06:49;23.55;;;15.23;;
2698;SDS011;1359;51.798;12.174;2022-10-31T08:09:14;27.92;;;17.13;;
2698;SDS011;1359;51.798;12.174;2022-10-31T08:11:39;32.42;;;15.23;;
2698;SDS011;1359;51.798;12.174;2022-10-31T08:14:04;37.33;;;17.00;;
2698;SDS011;1359;51.798;12.174;2022-10-31T08:16:30;25.83;;;17.00;;
2698;SDS011;1359;51.798;12.174;2022-10-31T08:18:55;37.30;;;19.10;;
2698;SDS011;1359;51.798;12.174;2022-10-31T08:21:20;49.93;;;20.67;;
2698;SDS011;1359;51.798;12.174;2022-10-31T08:23:45;33.93;;;17.43;;
2698;SDS011;1359;51.798;12.174;2022-10-31T08:26:12;35.93;;;20.13;;
2698;SDS011;1359;51.798;12.174;2022-10-31T08:28:37;35.03;;;21.55;;
2698;SDS011;1359;51.798;12.174;2022-10-31T08:31:02;45.03;;;24.37;;
2698;SDS011;1359;51.798;12.174;2022-10-31T08:33:27;34.83;;;21.03;;
2698;SDS011;1359;51.798;12.174;2022-10-31T08:35:52;43.58;;;22.02;;
2698;SDS011;1359;51.798;12.174;2022-10-31T08:38:18;42.05;;;21.55;;
2698;SDS011;1359;51.798;12.174;2022-10-31T08:40:43;37.60;;;21.80;;
2698;SDS011;1359;51.798;12.174;2022-10-31T08:43:12;46.97;;;23.02;;
2698;SDS011;1359;51.798;12.174;2022-10-31T08:45:37;43.97;;;22.20;;
2698;SDS011;1359;51.798;12.174;2022-10-31T08:48:03;46.70;;;22.07;;
2698;SDS011;1359;51.798;12.174;2022-10-31T08:50:30;44.30;;;21.70;;
2698;SDS011;1359;51.798;12.174;2022-10-31T08:55:27;43.97;;;21.13;;
2698;SDS011;1359;51.798;12.174;2022-10-31T08:57:55;56.07;;;23.63;;
2698;SDS011;1359;51.798;12.174;2022-10-31T09:00:21;47.33;;;21.80;;
2698;SDS011;1359;51.798;12.174;2022-10-31T09:02:46;50.05;;;24.27;;
2698;SDS011;1359;51.798;12.174;2022-10-31T09:05:11;53.53;;;25.33;;
2698;SDS011;1359;51.798;12.174;2022-10-31T09:07:36;47.03;;;24.40;;
2698;SDS011;1359;51.798;12.174;2022-10-31T09:10:02;71.03;;;27.67;;
2698;SDS011;1359;51.798;12.174;2022-10-31T09:12:27;53.37;;;29.70;;
2698;SDS011;1359;51.798;12.174;2022-10-31T09:14:52;67.38;;;27.92;;
2698;SDS011;1359;51.798;12.174;2022-10-31T09:17:17;58.60;;;30.90;;
2698;SDS011;1359;51.798;12.174;2022-10-31T09:19:43;66.40;;;31.55;;
2698;SDS011;1359;51.798;12.174;2022-10-31T09:22:08;68.70;;;32.10;;
2698;SDS011;1359;51.798;12.174;2022-10-31T09:24:33;61.23;;;30.47;;
2698;SDS011;1359;51.798;12.174;2022-10-31T09:26:58;72.00;;;31.90;;
2698;SDS011;1359;51.798;12.174;2022-10-31T09:29:23;65.47;;;30.43;;
2698;SDS011;1359;51.798;12.174;2022-10-31T09:31:48;72.67;;;32.80;;
2698;SDS011;1359;51.798;12.174;2022-10-31T09:34:14;65.93;;;31.30;;
2698;SDS011;1359;51.798;12.174;2022-10-31T09:36:39;79.15;;;34.25;;
2698;SDS011;1359;51.798;12.174;2022-10-31T09:39:04;64.40;;;33.23;;
2698;SDS011;1359;51.798;12.174;2022-10-31T09:49:23;69.83;;;34.27;;
2698;SDS011;1359;51.798;12.174;2022-10-31T09:51:51;68.67;;;34.33;;
2698;SDS011;1359;51.798;12.174;2022-10-31T09:54:19;72.77;;;37.00;;
2698;SDS011;1359;51.798;12.174;2022-10-31T09:56:46;66.60;;;31.67;;
2698;SDS011;1359;51.798;12.174;2022-10-31T09:59:14;80.90;;;38.20;;
2698;SDS011;1359;51.798;12.174;2022-10-31T10:01:53;77.47;;;35.57;;
2698;SDS011;1359;51.798;12.174;2022-10-31T10:04:39;72.53;;;34.60;;
2698;SDS011;1359;51.798;12.174;2022-10-31T10:07:14;69.27;;;34.07;;
2698;SDS011;1359;51.798;12.174;2022-10-31T10:09:41;69.17;;;35.70;;
2698;SDS011;1359;51.798;12.174;2022-10-31T10:12:18;60.77;;;32.27;;
2698;SDS011;1359;51.798;12.174;2022-10-31T10:18:09;68.00;;;39.20;;
2698;SDS011;1359;51.798;12.174;2022-10-31T10:20:54;73.10;;;33.37;;
2698;SDS011;1359;51.798;12.174;2022-10-31T10:26:18;71.07;;;33.17;;
2698;SDS011;1359;51.798;12.174;2022-10-31T10:28:45;68.80;;;34.20;;
2698;SDS011;1359;51.798;12.174;2022-10-31T10:31:13;77.97;;;38.03;;
2698;SDS011;1359;51.798;12.174;2022-10-31T10:33:40;80.17;;;37.13;;
2698;SDS011;1359;51.798;12.174;2022-10-31T10:36:12;86.70;;;39.03;;
2698;SDS011;1359;51.798;12.174;2022-10-31T10:41:10;86.50;;;39.05;;
2698;SDS011;1359;51.798;12.174;2022-10-31T10:43:37;88.87;;;38.90;;
2698;SDS011;1359;51.798;12.174;2022-10-31T10:46:17;85.97;;;39.47;;
2698;SDS011;1359;51.798;12.174;2022-10-31T10:53:59;72.72;;;36.10;;
2698;SDS011;1359;51.798;12.174;2022-10-31T10:56:34;89.47;;;39.00;;
2698;SDS011;1359;51.798;12.174;2022-10-31T10:59:01;86.17;;;39.97;;
2698;SDS011;1359;51.798;12.174;2022-10-31T11:01:27;78.90;;;37.70;;
2698;SDS011;1359;51.798;12.174;2022-10-31T11:03:53;105.90;;;40.87;;
2698;SDS011;1359;51.798;12.174;2022-10-31T11:06:18;85.22;;;38.88;;
2698;SDS011;1359;51.798;12.174;2022-10-31T11:08:50;94.40;;;40.97;;
2698;SDS011;1359;51.798;12.174;2022-10-31T11:11:30;78.80;;;37.33;;
2698;SDS011;1359;51.798;12.174;2022-10-31T11:13:58;75.90;;;38.03;;
2698;SDS011;1359;51.798;12.174;2022-10-31T11:18:52;72.77;;;37.40;;
2698;SDS011;1359;51.798;12.174;2022-10-31T11:21:23;79.67;;;41.60;;
2698;SDS011;1359;51.798;12.174;2022-10-31T11:23:48;88.73;;;38.30;;
2698;SDS011;1359;51.798;12.174;2022-10-31T11:26:19;75.75;;;39.35;;
2698;SDS011;1359;51.798;12.174;2022-10-31T11:28:55;75.60;;;35.90;;
2698;SDS011;1359;51.798;12.174;2022-10-31T11:31:20;76.43;;;35.90;;
2698;SDS011;1359;51.798;12.174;2022-10-31T11:33:46;94.63;;;37.97;;
2698;SDS011;1359;51.798;12.174;2022-10-31T11:38:40;74.60;;;38.53;;
2698;SDS011;1359;51.798;12.174;2022-10-31T11:43:31;71.25;;;38.45;;
2698;SDS011;1359;51.798;12.174;2022-10-31T11:45:56;68.83;;;35.87;;
2698;SDS011;1359;51.798;12.174;2022-10-31T11:48:22;71.43;;;37.93;;
2698;SDS011;1359;51.798;12.174;2022-10-31T11:50:50;75.90;;;37.53;;
2698;SDS011;1359;51.798;12.174;2022-10-31T11:53:17;85.30;;;40.90;;
2698;SDS011;1359;51.798;12.174;2022-10-31T11:55:44;81.03;;;38.50;;
2698;SDS011;1359;51.798;12.174;2022-10-31T11:58:22;78.50;;;40.07;;
2698;SDS011;1359;51.798;12.174;2022-10-31T12:00:49;82.10;;;39.70;;
2698;SDS011;1359;51.798;12.174;2022-10-31T12:05:40;73.60;;;36.92;;
2698;SDS011;1359;51.798;12.174;2022-10-31T12:08:09;89.47;;;36.10;;
2698;SDS011;1359;51.798;12.174;2022-10-31T12:10:49;71.87;;;39.20;;
2698;SDS011;1359;51.798;12.174;2022-10-31T12:13:24;79.67;;;38.00;;
2698;SDS011;1359;51.798;12.174;2022-10-31T12:15:57;85.70;;;39.93;;
2698;SDS011;1359;51.798;12.174;2022-10-31T12:20:57;83.67;;;33.03;;
2698;SDS011;1359;51.798;12.174;2022-10-31T12:23:43;100.83;;;41.00;;
2698;SDS011;1359;51.798;12.174;2022-10-31T12:26:23;78.93;;;38.60;;
2698;SDS011;1359;51.798;12.174;2022-10-31T12:36:57;98.27;;;42.57;;
2698;SDS011;1359;51.798;12.174;2022-10-31T12:41:38;86.33;;;38.70;;
2698;SDS011;1359;51.798;12.174;2022-10-31T12:44:05;90.60;;;40.67;;
2698;SDS011;1359;51.798;12.174;2022-10-31T12:46:40;96.97;;;44.53;;
2698;SDS011;1359;51.798;12.174;2022-10-31T12:54:24;88.57;;;43.00;;
2698;SDS011;1359;51.798;12.174;2022-10-31T12:59:42;79.40;;;40.00;;
2698;SDS011;1359;51.798;12.174;2022-10-31T13:02:23;89.90;;;39.60;;
2698;SDS011;1359;51.798;12.174;2022-10-31T13:08:01;99.85;;;43.53;;
2698;SDS011;1359;51.798;12.174;2022-10-31T13:12:26;88.23;;;42.53;;
2698;SDS011;1359;51.798;12.174;2022-10-31T13:14:56;77.30;;;41.83;;
2698;SDS011;1359;51.798;12.174;2022-10-31T13:17:27;92.80;;;43.17;;
2698;SDS011;1359;51.798;12.174;2022-10-31T13:19:59;96.07;;;42.13;;
2698;SDS011;1359;51.798;12.174;2022-10-31T13:22:30;92.67;;;43.83;;
2698;SDS011;1359;51.798;12.174;2022-10-31T13:27:25;87.13;;;42.07;;
2698;SDS011;1359;51.798;12.174;2022-10-31T13:32:22;87.23;;;41.07;;
2698;SDS011;1359;51.798;12.174;2022-10-31T13:34:50;82.33;;;38.60;;
2698;SDS011;1359;51.798;12.174;2022-10-31T13:37:20;74.87;;;42.00;;
2698;SDS011;1359;51.798;12.174;2022-10-31T13:39:50;90.13;;;41.10;;
2698;SDS011;1359;51.798;12.174;2022-10-31T13:45:15;88.60;;;42.13;;
2698;SDS011;1359;51.798;12.174;2022-10-31T13:47:41;84.43;;;41.33;;
2698;SDS011;1359;51.798;12.174;2022-10-31T13:50:24;89.50;;;39.17;;
2698;SDS011;1359;51.798;12.174;2022-10-31T13:52:50;105.67;;;44.57;;
2698;SDS011;1359;51.798;12.174;2022-10-31T13:57:59;98.27;;;43.63;;
2698;SDS011;1359;51.798;12.174;2022-10-31T14:00:25;77.23;;;42.60;;
2698;SDS011;1359;51.798;12.174;2022-10-31T14:02:51;89.63;;;41.20;;
2698;SDS011;1359;51.798;12.174;2022-10-31T14:05:25;95.97;;;40.83;;
2698;SDS011;1359;51.798;12.174;2022-10-31T14:07:51;81.47;;;38.73;;
2698;SDS011;1359;51.798;12.174;2022-10-31T14:10:31;86.27;;;42.07;;
2698;SDS011;1359;51.798;12.174;2022-10-31T14:15:42;82.37;;;42.37;;
2698;SDS011;1359;51.798;12.174;2022-10-31T14:18:17;104.50;;;44.63;;
2698;SDS011;1359;51.798;12.174;2022-10-31T14:20:44;106.43;;;43.73;;
2698;SDS011;1359;51.798;12.174;2022-10-31T14:26:05;105.90;;;45.13;;
2698;SDS011;1359;51.798;12.174;2022-10-31T14:28:32;100.47;;;44.20;;
2698;SDS011;1359;51.798;12.174;2022-10-31T14:30:58;83.00;;;39.20;;
2698;SDS011;1359;51.798;12.174;2022-10-31T14:33:25;101.17;;;44.10;;
2698;SDS011;1359;51.798;12.174;2022-10-31T14:36:00;89.33;;;42.30;;
2698;SDS011;1359;51.798;12.174;2022-10-31T14:38:40;75.77;;;39.40;;
2698;SDS011;1359;51.798;12.174;2022-10-31T14:41:15;93.37;;;40.40;;
2698;SDS011;1359;51.798;12.174;2022-10-31T14:46:42;96.20;;;45.10;;
2698;SDS011;1359;51.798;12.174;2022-10-31T14:49:13;88.00;;;40.13;;
2698;SDS011;1359;51.798;12.174;2022-10-31T14:51:44;79.67;;;40.23;;
2698;SDS011;1359;51.798;12.174;2022-10-31T14:54:12;83.00;;;42.40;;
2698;SDS011;1359;51.798;12.174;2022-10-31T14:56:40;76.27;;;40.47;;
2698;SDS011;1359;51.798;12.174;2022-10-31T14:59:09;79.43;;;39.70;;
2698;SDS011;1359;51.798;12.174;2022-10-31T15:01:36;93.70;;;43.53;;
2698;SDS011;1359;51.798;12.174;2022-10-31T15:04:13;92.00;;;43.40;;
2698;SDS011;1359;51.798;12.174;2022-10-31T15:06:46;91.67;;;42.00;;
2698;SDS011;1359;51.798;12.174;2022-10-31T15:09:25;94.10;;;44.80;;
2698;SDS011;1359;51.798;12.174;2022-10-31T15:11:51;92.83;;;43.10;;
2698;SDS011;1359;51.798;12.174;2022-10-31T15:14:20;114.57;;;46.20;;
2698;SDS011;1359;51.798;12.174;2022-10-31T15:16:46;110.43;;;47.70;;
2698;SDS011;1359;51.798;12.174;2022-10-31T15:19:12;111.87;;;45.13;;
2698;SDS011;1359;51.798;12.174;2022-10-31T15:21:40;90.37;;;41.07;;
2698;SDS011;1359;51.798;12.174;2022-10-31T15:24:10;115.10;;;45.80;;
2698;SDS011;1359;51.798;12.174;2022-10-31T15:26:37;105.07;;;47.40;;
2698;SDS011;1359;51.798;12.174;2022-10-31T15:29:10;95.47;;;40.47;;
2698;SDS011;1359;51.798;12.174;2022-10-31T15:31:36;96.80;;;41.20;;
2698;SDS011;1359;51.798;12.174;2022-10-31T15:34:06;84.25;;;41.05;;
2698;SDS011;1359;51.798;12.174;2022-10-31T15:36:32;80.60;;;39.43;;
2698;SDS011;1359;51.798;12.174;2022-10-31T15:38:57;87.83;;;40.67;;
2698;SDS011;1359;51.798;12.174;2022-10-31T15:43:48;90.05;;;39.55;;
2698;SDS011;1359;51.798;12.174;2022-10-31T15:46:13;99.87;;;38.33;;
2698;SDS011;1359;51.798;12.174;2022-10-31T15:48:38;103.20;;;43.83;;
2698;SDS011;1359;51.798;12.174;2022-10-31T15:51:08;112.03;;;39.20;;
2698;SDS011;1359;51.798;12.174;2022-10-31T15:53:38;70.33;;;35.07;;
2698;SDS011;1359;51.798;12.174;2022-10-31T15:56:08;79.30;;;36.77;;
2698;SDS011;1359;51.798;12.174;2022-10-31T15:58:45;71.17;;;35.83;;
2698;SDS011;1359;51.798;12.174;2022-10-31T16:01:21;77.33;;;36.73;;
2698;SDS011;1359;51.798;12.174;2022-10-31T16:04:19;78.00;;;37.87;;
2698;SDS011;1359;51.798;12.174;2022-10-31T16:06:51;72.00;;;37.10;;
2698;SDS011;1359;51.798;12.174;2022-10-31T16:09:22;74.90;;;36.10;;
2698;SDS011;1359;51.798;12.174;2022-10-31T16:11:47;78.80;;;36.83;;
2698;SDS011;1359;51.798;12.174;2022-10-31T16:14:20;82.37;;;37.00;;
2698;SDS011;1359;51.798;12.174;2022-10-31T16:16:51;102.20;;;46.63;;
2698;SDS011;1359;51.798;12.174;2022-10-31T16:19:21;91.40;;;46.47;;
2698;SDS011;1359;51.798;12.174;2022-10-31T16:21:49;107.93;;;41.47;;
2698;SDS011;1359;51.798;12.174;2022-10-31T16:24:31;137.47;;;53.57;;
2698;SDS011;1359;51.798;12.174;2022-10-31T16:27:06;89.50;;;46.03;;
2698;SDS011;1359;51.798;12.174;2022-10-31T16:29:44;115.57;;;48.20;;
2698;SDS011;1359;51.798;12.174;2022-10-31T16:32:23;97.73;;;39.33;;